sensor_id;sensor_type;location;lat;lon;timestamp;temperature;humidity
11242;DHT22;5678;52.370;9.006;2022-10-31T00:01:42;11.20;99.90
11242;DHT22;5678;52.370;9.006;2022-10-31T00:04:11;11.10;99.90
11242;DHT22;5678;52.370;9.006;2022-10-31T00:06:39;11.10;99.90
11242;DHT22;5678;52.370;9.006;2022-10-31T00:09:09;11.10;99.90
11242;DHT22;5678;52.370;9.006;2022-10-31T00:11:37;11.10;99.90
11242;DHT22;5678;52.370;9.006;2022-10-31T00:14:07;11.10;99.90
11242;DHT22;5678;52.370;9.006;2022-10-31T00:16:35;11.10;99.90
11242;DHT22;5678;52.370;9.006;2022-10-31T00:19:05;11.10;99.90
11242;DHT22;5678;52.370;9.006;2022-10-31T00:21:34;11.10;99.90
11242;DHT22;5678;52.370;9.006;2022-10-31T00:24:03;11.20;99.90
11242;DHT22;5678;52.370;9.006;2022-10-31T00:26:31;11.20;99.90
11242;DHT22;5678;52.370;9.006;2022-10-31T00:28:59;11.60;99.90
11242;DHT22;5678;52.370;9.006;2022-10-31T00:31:29;13.00;99.90
11242;DHT22;5678;52.370;9.006;2022-10-31T00:33:57;11.30;99.90
11242;DHT22;5678;52.370;9.006;2022-10-31T00:36:25;11.30;99.90
11242;DHT22;5678;52.370;9.006;2022-10-31T00:38:53;11.40;99.90
11242;DHT22;5678;52.370;9.006;2022-10-31T00:41:22;11.40;99.90
11242;DHT22;5678;52.370;9.006;2022-10-31T00:43:50;13.30;99.90
11242;DHT22;5678;52.370;9.006;2022-10-31T00:46:18;11.50;99.90
11242;DHT22;5678;52.370;9.006;2022-10-31T00:48:47;11.50;99.90
11242;DHT22;5678;52.370;9.006;2022-10-31T00:51:15;12.30;99.90
11242;DHT22;5678;52.370;9.006;2022-10-31T00:53:43;11.50;99.90
11242;DHT22;5678;52.370;9.006;2022-10-31T00:56:11;11.50;99.90
11242;DHT22;5678;52.370;9.006;2022-10-31T00:58:39;11.50;99.90
11242;DHT22;5678;52.370;9.006;2022-10-31T01:01:07;11.50;99.90
11242;DHT22;5678;52.370;9.006;2022-10-31T01:03:35;11.40;99.90
11242;DHT22;5678;52.370;9.006;2022-10-31T01:06:08;11.50;99.90
11242;DHT22;5678;52.370;9.006;2022-10-31T01:08:37;11.50;99.90
11242;DHT22;5678;52.370;9.006;2022-10-31T01:11:08;11.40;99.90
11242;DHT22;5678;52.370;9.006;2022-10-31T01:13:37;11.40;99.90
11242;DHT22;5678;52.370;9.006;2022-10-31T01:16:07;12.20;99.90
11242;DHT22;5678;52.370;9.006;2022-10-31T01:18:35;11.40;99.90
11242;DHT22;5678;52.370;9.006;2022-10-31T01:21:06;11.40;99.90
11242;DHT22;5678;52.370;9.006;2022-10-31T01:23:35;11.40;99.90
11242;DHT22;5678;52.370;9.006;2022-10-31T01:26:06;11.40;99.90
11242;DHT22;5678;52.370;9.006;2022-10-31T01:28:35;11.20;99.90
11242;DHT22;5678;52.370;9.006;2022-10-31T01:31:05;11.20;99.90
11242;DHT22;5678;52.370;9.006;2022-10-31T01:33:34;12.70;99.90
11242;DHT22;5678;52.370;9.006;2022-10-31T01:36:12;12.60;99.90
11242;DHT22;5678;52.370;9.006;2022-10-31T01:38:41;11.10;99.90
11242;DHT22;5678;52.370;9.006;2022-10-31T01:41:11;11.20;99.90
11242;DHT22;5678;52.370;9.006;2022-10-31T01:43:47;11.10;99.90
11242;DHT22;5678;52.370;9.006;2022-10-31T01:46:17;11.90;99.90
11242;DHT22;5678;52.370;9.006;2022-10-31T01:48:47;11.10;99.90
11242;DHT22;5678;52.370;9.006;2022-10-31T01:51:19;11.10;99.90
11242;DHT22;5678;52.370;9.006;2022-10-31T01:53:49;11.00;99.90
11242;DHT22;5678;52.370;9.006;2022-10-31T01:56:18;11.00;99.90
11242;DHT22;5678;52.370;9.006;2022-10-31T01:58:46;10.90;99.90
11242;DHT22;5678;52.370;9.006;2022-10-31T02:01:16;12.70;99.90
11242;DHT22;5678;52.370;9.006;2022-10-31T02:03:45;10.90;99.90
11242;DHT22;5678;52.370;9.006;2022-10-31T02:06:24;10.90;99.90
11242;DHT22;5678;52.370;9.006;2022-10-31T02:08:57;10.90;99.90
11242;DHT22;5678;52.370;9.006;2022-10-31T02:11:27;10.90;99.90
11242;DHT22;5678;52.370;9.006;2022-10-31T02:13:56;10.90;99.90
11242;DHT22;5678;52.370;9.006;2022-10-31T02:16:25;10.90;99.90
11242;DHT22;5678;52.370;9.006;2022-10-31T02:18:53;10.80;99.90
11242;DHT22;5678;52.370;9.006;2022-10-31T02:21:28;10.80;99.90
11242;DHT22;5678;52.370;9.006;2022-10-31T02:24:37;10.90;99.90
11242;DHT22;5678;52.370;9.006;2022-10-31T02:27:31;10.70;99.90
11242;DHT22;5678;52.370;9.006;2022-10-31T02:30:07;10.60;99.90
11242;DHT22;5678;52.370;9.006;2022-10-31T02:32:59;10.50;99.90
11242;DHT22;5678;52.370;9.006;2022-10-31T02:35:40;10.50;99.90
11242;DHT22;5678;52.370;9.006;2022-10-31T02:38:18;10.60;99.90
11242;DHT22;5678;52.370;9.006;2022-10-31T02:40:53;10.30;99.90
11242;DHT22;5678;52.370;9.006;2022-10-31T02:43:29;10.30;99.90
11242;DHT22;5678;52.370;9.006;2022-10-31T02:46:03;10.20;99.90
11242;DHT22;5678;52.370;9.006;2022-10-31T02:48:39;10.10;99.90
11242;DHT22;5678;52.370;9.006;2022-10-31T02:51:08;10.00;99.90
11242;DHT22;5678;52.370;9.006;2022-10-31T02:53:38;10.00;99.90
11242;DHT22;5678;52.370;9.006;2022-10-31T02:56:08;10.00;99.90
11242;DHT22;5678;52.370;9.006;2022-10-31T02:58:42;11.00;99.90
11242;DHT22;5678;52.370;9.006;2022-10-31T03:01:23;11.70;99.90
11242;DHT22;5678;52.370;9.006;2022-10-31T03:06:56;10.00;99.90
11242;DHT22;5678;52.370;9.006;2022-10-31T03:09:33;9.90;99.90
11242;DHT22;5678;52.370;9.006;2022-10-31T03:12:07;9.90;99.90
11242;DHT22;5678;52.370;9.006;2022-10-31T03:14:41;9.90;99.90
11242;DHT22;5678;52.370;9.006;2022-10-31T03:17:15;9.90;99.90
11242;DHT22;5678;52.370;9.006;2022-10-31T03:19:49;9.80;99.90
11242;DHT22;5678;52.370;9.006;2022-10-31T03:22:21;11.70;99.90
11242;DHT22;5678;52.370;9.006;2022-10-31T03:24:51;9.80;99.90
11242;DHT22;5678;52.370;9.006;2022-10-31T03:27:22;9.80;99.90
11242;DHT22;5678;52.370;9.006;2022-10-31T03:29:53;9.80;99.90
11242;DHT22;5678;52.370;9.006;2022-10-31T03:32:26;9.80;99.90
11242;DHT22;5678;52.370;9.006;2022-10-31T03:34:59;9.80;99.90
11242;DHT22;5678;52.370;9.006;2022-10-31T03:37:31;9.80;99.90
11242;DHT22;5678;52.370;9.006;2022-10-31T03:40:02;9.80;99.90
11242;DHT22;5678;52.370;9.006;2022-10-31T03:42:33;9.80;99.90
11242;DHT22;5678;52.370;9.006;2022-10-31T03:45:04;9.80;99.90
11242;DHT22;5678;52.370;9.006;2022-10-31T03:47:34;9.80;99.90
11242;DHT22;5678;52.370;9.006;2022-10-31T03:50:06;9.80;99.90
11242;DHT22;5678;52.370;9.006;2022-10-31T03:52:39;9.80;99.90
11242;DHT22;5678;52.370;9.006;2022-10-31T03:55:12;9.80;99.90
11242;DHT22;5678;52.370;9.006;2022-10-31T03:57:48;9.80;99.90
11242;DHT22;5678;52.370;9.006;2022-10-31T04:00:19;9.80;99.90
11242;DHT22;5678;52.370;9.006;2022-10-31T04:02:51;9.90;99.90
11242;DHT22;5678;52.370;9.006;2022-10-31T04:05:22;9.90;99.90
11242;DHT22;5678;52.370;9.006;2022-10-31T04:07:55;9.90;99.90
11242;DHT22;5678;52.370;9.006;2022-10-31T04:10:24;9.90;99.90
11242;DHT22;5678;52.370;9.006;2022-10-31T04:13:03;9.80;99.90
11242;DHT22;5678;52.370;9.006;2022-10-31T04:15:33;9.80;99.90
11242;DHT22;5678;52.370;9.006;2022-10-31T04:18:04;10.70;99.90
11242;DHT22;5678;52.370;9.006;2022-10-31T04:20:36;9.70;99.90
11242;DHT22;5678;52.370;9.006;2022-10-31T04:23:05;9.70;99.90
11242;DHT22;5678;52.370;9.006;2022-10-31T04:25:40;11.40;99.90
11242;DHT22;5678;52.370;9.006;2022-10-31T04:28:08;9.60;99.90
11242;DHT22;5678;52.370;9.006;2022-10-31T04:30:36;9.60;99.90
11242;DHT22;5678;52.370;9.006;2022-10-31T04:33:04;9.60;99.90
11242;DHT22;5678;52.370;9.006;2022-10-31T04:35:33;9.50;99.90
11242;DHT22;5678;52.370;9.006;2022-10-31T04:38:01;9.50;99.90
11242;DHT22;5678;52.370;9.006;2022-10-31T04:40:29;9.40;99.90
11242;DHT22;5678;52.370;9.006;2022-10-31T04:42:57;9.40;99.90
11242;DHT22;5678;52.370;9.006;2022-10-31T04:45:25;9.30;99.90
11242;DHT22;5678;52.370;9.006;2022-10-31T04:47:53;9.30;99.90
11242;DHT22;5678;52.370;9.006;2022-10-31T04:50:21;9.20;99.90
11242;DHT22;5678;52.370;9.006;2022-10-31T04:52:50;9.20;99.90
11242;DHT22;5678;52.370;9.006;2022-10-31T04:55:19;9.10;99.90
11242;DHT22;5678;52.370;9.006;2022-10-31T04:57:48;9.10;99.90
11242;DHT22;5678;52.370;9.006;2022-10-31T05:00:18;9.00;99.90
11242;DHT22;5678;52.370;9.006;2022-10-31T05:02:46;9.00;99.90
11242;DHT22;5678;52.370;9.006;2022-10-31T05:05:16;8.90;99.90
11242;DHT22;5678;52.370;9.006;2022-10-31T05:07:45;8.90;99.90
11242;DHT22;5678;52.370;9.006;2022-10-31T05:10:17;8.90;99.90
11242;DHT22;5678;52.370;9.006;2022-10-31T05:12:46;8.80;99.90
11242;DHT22;5678;52.370;9.006;2022-10-31T05:15:15;8.90;99.90
11242;DHT22;5678;52.370;9.006;2022-10-31T05:17:44;8.90;99.90
11242;DHT22;5678;52.370;9.006;2022-10-31T05:20:13;8.90;99.90
11242;DHT22;5678;52.370;9.006;2022-10-31T05:22:42;8.90;99.90
11242;DHT22;5678;52.370;9.006;2022-10-31T05:25:11;8.90;99.90
11242;DHT22;5678;52.370;9.006;2022-10-31T05:27:41;8.80;99.90
11242;DHT22;5678;52.370;9.006;2022-10-31T05:30:12;8.80;99.90
11242;DHT22;5678;52.370;9.006;2022-10-31T05:32:41;8.70;99.90
11242;DHT22;5678;52.370;9.006;2022-10-31T05:35:11;8.70;99.90
11242;DHT22;5678;52.370;9.006;2022-10-31T05:37:39;8.70;99.90
11242;DHT22;5678;52.370;9.006;2022-10-31T05:40:09;8.70;99.90
11242;DHT22;5678;52.370;9.006;2022-10-31T05:42:38;8.50;99.90
11242;DHT22;5678;52.370;9.006;2022-10-31T05:45:08;8.50;99.90
11242;DHT22;5678;52.370;9.006;2022-10-31T05:47:36;8.40;99.90
11242;DHT22;5678;52.370;9.006;2022-10-31T05:50:05;9.60;99.90
11242;DHT22;5678;52.370;9.006;2022-10-31T05:52:33;8.30;99.90
11242;DHT22;5678;52.370;9.006;2022-10-31T05:55:01;8.40;99.90
11242;DHT22;5678;52.370;9.006;2022-10-31T05:57:31;8.40;99.90
11242;DHT22;5678;52.370;9.006;2022-10-31T05:59:59;8.30;99.90
11242;DHT22;5678;52.370;9.006;2022-10-31T06:02:28;8.30;99.90
11242;DHT22;5678;52.370;9.006;2022-10-31T06:05:00;8.20;99.90
11242;DHT22;5678;52.370;9.006;2022-10-31T06:07:32;8.20;99.90
11242;DHT22;5678;52.370;9.006;2022-10-31T06:10:00;8.20;99.90
11242;DHT22;5678;52.370;9.006;2022-10-31T06:12:28;8.20;99.90
11242;DHT22;5678;52.370;9.006;2022-10-31T06:14:56;8.10;99.90
11242;DHT22;5678;52.370;9.006;2022-10-31T06:17:24;8.10;99.90
11242;DHT22;5678;52.370;9.006;2022-10-31T06:19:54;8.10;99.90
11242;DHT22;5678;52.370;9.006;2022-10-31T06:22:22;10.10;99.90
11242;DHT22;5678;52.370;9.006;2022-10-31T06:24:49;8.10;99.90
11242;DHT22;5678;52.370;9.006;2022-10-31T06:27:18;8.50;99.90
11242;DHT22;5678;52.370;9.006;2022-10-31T06:29:46;9.40;99.90
11242;DHT22;5678;52.370;9.006;2022-10-31T06:32:14;10.00;99.90
11242;DHT22;5678;52.370;9.006;2022-10-31T06:34:42;8.30;99.90
11242;DHT22;5678;52.370;9.006;2022-10-31T06:37:12;8.40;99.90
11242;DHT22;5678;52.370;9.006;2022-10-31T06:39:40;10.30;99.90
11242;DHT22;5678;52.370;9.006;2022-10-31T06:42:08;9.90;99.90
11242;DHT22;5678;52.370;9.006;2022-10-31T06:44:36;8.40;99.90
11242;DHT22;5678;52.370;9.006;2022-10-31T06:47:05;10.20;99.90
11242;DHT22;5678;52.370;9.006;2022-10-31T06:49:33;8.50;99.90
11242;DHT22;5678;52.370;9.006;2022-10-31T06:52:01;8.50;99.90
11242;DHT22;5678;52.370;9.006;2022-10-31T06:54:30;8.60;99.90
11242;DHT22;5678;52.370;9.006;2022-10-31T06:56:58;8.60;99.90
11242;DHT22;5678;52.370;9.006;2022-10-31T06:59:26;8.70;99.90
11242;DHT22;5678;52.370;9.006;2022-10-31T07:01:54;10.30;99.90
11242;DHT22;5678;52.370;9.006;2022-10-31T07:04:22;8.80;99.90
11242;DHT22;5678;52.370;9.006;2022-10-31T07:06:51;8.80;99.90
11242;DHT22;5678;52.370;9.006;2022-10-31T07:09:19;8.80;99.90
11242;DHT22;5678;52.370;9.006;2022-10-31T07:11:48;9.90;99.90
11242;DHT22;5678;52.370;9.006;2022-10-31T07:14:19;10.80;99.90
11242;DHT22;5678;52.370;9.006;2022-10-31T07:16:48;8.90;99.90
11242;DHT22;5678;52.370;9.006;2022-10-31T07:19:17;9.00;99.90
11242;DHT22;5678;52.370;9.006;2022-10-31T07:21:45;9.10;99.90
11242;DHT22;5678;52.370;9.006;2022-10-31T07:24:13;9.10;99.90
11242;DHT22;5678;52.370;9.006;2022-10-31T07:26:41;9.20;99.90
11242;DHT22;5678;52.370;9.006;2022-10-31T07:29:10;9.20;99.90
11242;DHT22;5678;52.370;9.006;2022-10-31T07:31:38;9.30;99.90
11242;DHT22;5678;52.370;9.006;2022-10-31T07:34:06;9.40;99.90
11242;DHT22;5678;52.370;9.006;2022-10-31T07:36:34;9.50;99.90
11242;DHT22;5678;52.370;9.006;2022-10-31T07:39:02;9.50;99.90
11242;DHT22;5678;52.370;9.006;2022-10-31T07:41:30;9.60;99.90
11242;DHT22;5678;52.370;9.006;2022-10-31T07:43:58;9.70;99.90
11242;DHT22;5678;52.370;9.006;2022-10-31T07:46:28;9.80;99.90
11242;DHT22;5678;52.370;9.006;2022-10-31T07:48:56;10.00;99.90
11242;DHT22;5678;52.370;9.006;2022-10-31T07:51:23;11.80;99.90
11242;DHT22;5678;52.370;9.006;2022-10-31T07:53:51;10.20;99.90
11242;DHT22;5678;52.370;9.006;2022-10-31T07:56:19;10.20;99.90
11242;DHT22;5678;52.370;9.006;2022-10-31T07:58:47;10.30;99.90
11242;DHT22;5678;52.370;9.006;2022-10-31T08:01:15;12.00;99.90
11242;DHT22;5678;52.370;9.006;2022-10-31T08:03:44;11.50;99.90
11242;DHT22;5678;52.370;9.006;2022-10-31T08:06:12;10.60;99.90
11242;DHT22;5678;52.370;9.006;2022-10-31T08:08:40;10.70;99.90
11242;DHT22;5678;52.370;9.006;2022-10-31T08:11:08;10.80;99.90
11242;DHT22;5678;52.370;9.006;2022-10-31T08:13:36;10.90;99.90
11242;DHT22;5678;52.370;9.006;2022-10-31T08:16:04;11.80;99.90
11242;DHT22;5678;52.370;9.006;2022-10-31T08:18:33;11.20;99.90
11242;DHT22;5678;52.370;9.006;2022-10-31T08:21:05;11.30;99.90
11242;DHT22;5678;52.370;9.006;2022-10-31T08:23:33;11.50;99.90
11242;DHT22;5678;52.370;9.006;2022-10-31T08:26:01;12.30;99.90
11242;DHT22;5678;52.370;9.006;2022-10-31T08:28:29;11.70;99.90
11242;DHT22;5678;52.370;9.006;2022-10-31T08:30:57;11.90;99.90
11242;DHT22;5678;52.370;9.006;2022-10-31T08:33:25;12.60;99.90
11242;DHT22;5678;52.370;9.006;2022-10-31T08:35:53;12.80;99.90
11242;DHT22;5678;52.370;9.006;2022-10-31T08:38:23;13.80;99.90
11242;DHT22;5678;52.370;9.006;2022-10-31T08:40:51;12.30;99.90
11242;DHT22;5678;52.370;9.006;2022-10-31T08:43:19;12.40;99.90
11242;DHT22;5678;52.370;9.006;2022-10-31T08:45:48;14.00;99.90
11242;DHT22;5678;52.370;9.006;2022-10-31T08:48:17;12.60;99.90
11242;DHT22;5678;52.370;9.006;2022-10-31T08:50:45;12.70;99.90
11242;DHT22;5678;52.370;9.006;2022-10-31T08:53:15;12.80;99.90
11242;DHT22;5678;52.370;9.006;2022-10-31T08:55:45;13.30;99.90
11242;DHT22;5678;52.370;9.006;2022-10-31T08:58:15;14.40;99.90
11242;DHT22;5678;52.370;9.006;2022-10-31T09:00:44;14.60;99.90
11242;DHT22;5678;52.370;9.006;2022-10-31T09:03:14;14.00;99.90
11242;DHT22;5678;52.370;9.006;2022-10-31T09:05:42;13.30;99.90
11242;DHT22;5678;52.370;9.006;2022-10-31T09:08:10;13.50;99.90
11242;DHT22;5678;52.370;9.006;2022-10-31T09:10:44;13.40;99.90
11242;DHT22;5678;52.370;9.006;2022-10-31T09:13:13;13.30;99.90
11242;DHT22;5678;52.370;9.006;2022-10-31T09:15:43;13.40;99.90
11242;DHT22;5678;52.370;9.006;2022-10-31T09:18:12;13.50;99.90
11242;DHT22;5678;52.370;9.006;2022-10-31T09:20:42;14.20;99.90
11242;DHT22;5678;52.370;9.006;2022-10-31T09:23:11;13.70;99.90
11242;DHT22;5678;52.370;9.006;2022-10-31T09:25:53;13.80;99.90
11242;DHT22;5678;52.370;9.006;2022-10-31T09:28:38;14.00;99.90
11242;DHT22;5678;52.370;9.006;2022-10-31T09:31:06;15.90;99.90
11242;DHT22;5678;52.370;9.006;2022-10-31T09:33:37;15.30;99.90
11242;DHT22;5678;52.370;9.006;2022-10-31T09:36:05;14.10;99.90
11242;DHT22;5678;52.370;9.006;2022-10-31T09:38:33;14.20;99.90
11242;DHT22;5678;52.370;9.006;2022-10-31T09:41:08;15.10;99.90
11242;DHT22;5678;52.370;9.006;2022-10-31T09:43:48;16.00;99.90
11242;DHT22;5678;52.370;9.006;2022-10-31T09:46:25;14.50;99.90
11242;DHT22;5678;52.370;9.006;2022-10-31T09:51:51;14.50;99.90
11242;DHT22;5678;52.370;9.006;2022-10-31T09:54:27;14.70;99.90
11242;DHT22;5678;52.370;9.006;2022-10-31T09:56:59;15.30;99.90
11242;DHT22;5678;52.370;9.006;2022-10-31T09:59:30;14.90;99.90
11242;DHT22;5678;52.370;9.006;2022-10-31T10:02:02;15.00;99.90
11242;DHT22;5678;52.370;9.006;2022-10-31T10:04:37;15.10;99.90
11242;DHT22;5678;52.370;9.006;2022-10-31T10:07:13;15.70;99.90
11242;DHT22;5678;52.370;9.006;2022-10-31T10:09:43;15.70;99.90
11242;DHT22;5678;52.370;9.006;2022-10-31T10:12:21;15.20;99.90
11242;DHT22;5678;52.370;9.006;2022-10-31T10:15:00;15.40;99.90
11242;DHT22;5678;52.370;9.006;2022-10-31T10:17:39;16.70;99.90
11242;DHT22;5678;52.370;9.006;2022-10-31T10:20:31;15.60;99.90
11242;DHT22;5678;52.370;9.006;2022-10-31T10:23:14;16.00;99.90
11242;DHT22;5678;52.370;9.006;2022-10-31T10:25:48;15.60;99.90
11242;DHT22;5678;52.370;9.006;2022-10-31T10:28:21;15.90;99.90
11242;DHT22;5678;52.370;9.006;2022-10-31T10:30:51;15.80;99.90
11242;DHT22;5678;52.370;9.006;2022-10-31T10:33:24;15.60;99.90
11242;DHT22;5678;52.370;9.006;2022-10-31T10:35:58;15.50;99.90
11242;DHT22;5678;52.370;9.006;2022-10-31T10:38:29;15.50;99.90
11242;DHT22;5678;52.370;9.006;2022-10-31T10:41:02;16.40;99.90
11242;DHT22;5678;52.370;9.006;2022-10-31T10:43:36;17.40;99.90
11242;DHT22;5678;52.370;9.006;2022-10-31T10:46:18;15.90;99.90
11242;DHT22;5678;52.370;9.006;2022-10-31T10:49:13;16.60;99.90
11242;DHT22;5678;52.370;9.006;2022-10-31T10:51:45;16.10;99.90
11242;DHT22;5678;52.370;9.006;2022-10-31T10:54:49;16.10;99.90
11242;DHT22;5678;52.370;9.006;2022-10-31T10:57:27;16.20;99.90
11242;DHT22;5678;52.370;9.006;2022-10-31T11:00:02;16.20;99.90
11242;DHT22;5678;52.370;9.006;2022-10-31T11:02:32;16.20;99.90
11242;DHT22;5678;52.370;9.006;2022-10-31T11:05:01;16.70;99.90
11242;DHT22;5678;52.370;9.006;2022-10-31T11:07:38;16.30;99.90
11242;DHT22;5678;52.370;9.006;2022-10-31T11:10:12;16.30;99.90
11242;DHT22;5678;52.370;9.006;2022-10-31T11:12:42;16.30;99.90
11242;DHT22;5678;52.370;9.006;2022-10-31T11:15:20;16.30;99.90
11242;DHT22;5678;52.370;9.006;2022-10-31T11:17:49;16.40;99.90
11242;DHT22;5678;52.370;9.006;2022-10-31T11:20:28;16.40;99.90
11242;DHT22;5678;52.370;9.006;2022-10-31T11:23:14;16.40;99.90
11242;DHT22;5678;52.370;9.006;2022-10-31T11:25:51;16.50;99.90
11242;DHT22;5678;52.370;9.006;2022-10-31T11:28:20;16.50;99.90
11242;DHT22;5678;52.370;9.006;2022-10-31T11:30:52;16.60;99.90
11242;DHT22;5678;52.370;9.006;2022-10-31T11:33:26;16.60;99.90
11242;DHT22;5678;52.370;9.006;2022-10-31T11:35:55;16.70;99.90
11242;DHT22;5678;52.370;9.006;2022-10-31T11:38:29;16.70;99.90
11242;DHT22;5678;52.370;9.006;2022-10-31T11:41:00;16.70;99.90
11242;DHT22;5678;52.370;9.006;2022-10-31T11:43:31;16.80;99.90
11242;DHT22;5678;52.370;9.006;2022-10-31T11:46:08;16.90;99.90
11242;DHT22;5678;52.370;9.006;2022-10-31T11:48:37;16.90;99.90
11242;DHT22;5678;52.370;9.006;2022-10-31T11:51:05;17.30;99.90
11242;DHT22;5678;52.370;9.006;2022-10-31T11:53:35;16.90;99.90
11242;DHT22;5678;52.370;9.006;2022-10-31T11:56:09;16.90;99.90
11242;DHT22;5678;52.370;9.006;2022-10-31T11:58:38;17.00;99.90
11242;DHT22;5678;52.370;9.006;2022-10-31T12:01:23;17.00;99.90
11242;DHT22;5678;52.370;9.006;2022-10-31T12:03:59;17.10;99.90
11242;DHT22;5678;52.370;9.006;2022-10-31T12:06:33;17.30;99.90
11242;DHT22;5678;52.370;9.006;2022-10-31T12:09:02;17.20;99.90
11242;DHT22;5678;52.370;9.006;2022-10-31T12:11:43;17.30;99.90
11242;DHT22;5678;52.370;9.006;2022-10-31T12:14:23;17.30;99.90
11242;DHT22;5678;52.370;9.006;2022-10-31T12:16:57;17.40;99.90
11242;DHT22;5678;52.370;9.006;2022-10-31T12:19:35;17.50;99.90
11242;DHT22;5678;52.370;9.006;2022-10-31T12:22:13;17.60;99.90
11242;DHT22;5678;52.370;9.006;2022-10-31T12:24:55;17.60;99.90
11242;DHT22;5678;52.370;9.006;2022-10-31T12:27:32;17.70;99.90
11242;DHT22;5678;52.370;9.006;2022-10-31T12:30:13;17.70;99.90
11242;DHT22;5678;52.370;9.006;2022-10-31T12:32:56;18.00;99.90
11242;DHT22;5678;52.370;9.006;2022-10-31T12:35:43;17.70;99.90
11242;DHT22;5678;52.370;9.006;2022-10-31T12:38:26;17.70;99.90
11242;DHT22;5678;52.370;9.006;2022-10-31T12:41:13;17.70;99.90
11242;DHT22;5678;52.370;9.006;2022-10-31T12:43:46;17.60;99.90
11242;DHT22;5678;52.370;9.006;2022-10-31T12:46:27;17.90;99.90
11242;DHT22;5678;52.370;9.006;2022-10-31T12:49:31;17.50;99.90
11242;DHT22;5678;52.370;9.006;2022-10-31T12:52:09;17.50;99.90
11242;DHT22;5678;52.370;9.006;2022-10-31T12:54:52;17.50;99.90
11242;DHT22;5678;52.370;9.006;2022-10-31T12:57:29;17.50;99.90
11242;DHT22;5678;52.370;9.006;2022-10-31T13:00:02;17.50;99.90
11242;DHT22;5678;52.370;9.006;2022-10-31T13:02:36;17.60;99.90
11242;DHT22;5678;52.370;9.006;2022-10-31T13:05:24;17.70;99.90
11242;DHT22;5678;52.370;9.006;2022-10-31T13:07:55;17.70;99.90
11242;DHT22;5678;52.370;9.006;2022-10-31T13:10:29;17.70;99.90
11242;DHT22;5678;52.370;9.006;2022-10-31T13:13:05;17.70;99.90
11242;DHT22;5678;52.370;9.006;2022-10-31T13:15:39;17.70;99.90
11242;DHT22;5678;52.370;9.006;2022-10-31T13:18:19;17.70;99.90
11242;DHT22;5678;52.370;9.006;2022-10-31T13:20:51;17.70;99.90
11242;DHT22;5678;52.370;9.006;2022-10-31T13:23:26;17.50;99.90
11242;DHT22;5678;52.370;9.006;2022-10-31T13:26:21;17.60;99.90
11242;DHT22;5678;52.370;9.006;2022-10-31T13:28:54;17.40;99.90
11242;DHT22;5678;52.370;9.006;2022-10-31T13:31:23;17.40;99.90
11242;DHT22;5678;52.370;9.006;2022-10-31T13:33:54;17.40;99.90
11242;DHT22;5678;52.370;9.006;2022-10-31T13:36:31;17.40;99.90
11242;DHT22;5678;52.370;9.006;2022-10-31T13:39:06;17.40;99.90
11242;DHT22;5678;52.370;9.006;2022-10-31T13:41:42;17.40;99.90
11242;DHT22;5678;52.370;9.006;2022-10-31T13:44:14;17.40;99.90
11242;DHT22;5678;52.370;9.006;2022-10-31T13:46:44;17.30;99.90
11242;DHT22;5678;52.370;9.006;2022-10-31T13:49:36;17.20;99.90
11242;DHT22;5678;52.370;9.006;2022-10-31T13:52:17;17.20;99.90
11242;DHT22;5678;52.370;9.006;2022-10-31T13:54:51;17.10;99.90
11242;DHT22;5678;52.370;9.006;2022-10-31T13:57:30;17.30;99.90
11242;DHT22;5678;52.370;9.006;2022-10-31T14:00:03;17.00;99.90
11242;DHT22;5678;52.370;9.006;2022-10-31T14:02:34;17.00;99.90
11242;DHT22;5678;52.370;9.006;2022-10-31T14:05:05;17.00;99.90
11242;DHT22;5678;52.370;9.006;2022-10-31T14:07:43;17.00;99.90
11242;DHT22;5678;52.370;9.006;2022-10-31T14:10:22;16.90;99.90
11242;DHT22;5678;52.370;9.006;2022-10-31T14:12:53;16.90;99.90
11242;DHT22;5678;52.370;9.006;2022-10-31T14:15:24;16.80;99.90
11242;DHT22;5678;52.370;9.006;2022-10-31T14:17:55;16.80;99.90
11242;DHT22;5678;52.370;9.006;2022-10-31T14:20:32;16.90;99.90
11242;DHT22;5678;52.370;9.006;2022-10-31T14:26:32;16.70;99.90
11242;DHT22;5678;52.370;9.006;2022-10-31T14:31:52;16.80;99.90
11242;DHT22;5678;52.370;9.006;2022-10-31T14:34:23;16.80;99.90
11242;DHT22;5678;52.370;9.006;2022-10-31T14:37:18;16.60;99.90
11242;DHT22;5678;52.370;9.006;2022-10-31T14:40:01;16.60;99.90
11242;DHT22;5678;52.370;9.006;2022-10-31T14:42:42;17.50;99.90
11242;DHT22;5678;52.370;9.006;2022-10-31T14:45:21;16.50;99.90
11242;DHT22;5678;52.370;9.006;2022-10-31T14:48:00;16.50;99.90
11242;DHT22;5678;52.370;9.006;2022-10-31T14:50:45;17.30;99.90
11242;DHT22;5678;52.370;9.006;2022-10-31T14:53:19;16.80;99.90
11242;DHT22;5678;52.370;9.006;2022-10-31T14:55:53;16.40;99.90
11242;DHT22;5678;52.370;9.006;2022-10-31T14:58:24;16.30;99.90
11242;DHT22;5678;52.370;9.006;2022-10-31T15:00:56;17.10;99.90
11242;DHT22;5678;52.370;9.006;2022-10-31T15:03:29;16.90;99.90
11242;DHT22;5678;52.370;9.006;2022-10-31T15:06:00;16.00;99.90
11242;DHT22;5678;52.370;9.006;2022-10-31T15:08:32;16.00;99.90
11242;DHT22;5678;52.370;9.006;2022-10-31T15:11:09;16.00;99.90
11242;DHT22;5678;52.370;9.006;2022-10-31T15:13:45;16.40;99.90
11242;DHT22;5678;52.370;9.006;2022-10-31T15:16:15;15.90;99.90
11242;DHT22;5678;52.370;9.006;2022-10-31T15:18:53;16.90;99.90
11242;DHT22;5678;52.370;9.006;2022-10-31T15:21:24;15.80;99.90
11242;DHT22;5678;52.370;9.006;2022-10-31T15:23:54;15.70;99.90
11242;DHT22;5678;52.370;9.006;2022-10-31T15:26:26;15.60;99.90
11242;DHT22;5678;52.370;9.006;2022-10-31T15:28:59;15.60;99.90
11242;DHT22;5678;52.370;9.006;2022-10-31T15:31:29;15.50;99.90
11242;DHT22;5678;52.370;9.006;2022-10-31T15:34:00;15.50;99.90
11242;DHT22;5678;52.370;9.006;2022-10-31T15:36:30;15.50;99.90
11242;DHT22;5678;52.370;9.006;2022-10-31T15:39:04;15.50;99.90
11242;DHT22;5678;52.370;9.006;2022-10-31T15:41:35;15.40;99.90
11242;DHT22;5678;52.370;9.006;2022-10-31T15:44:13;15.40;99.90
11242;DHT22;5678;52.370;9.006;2022-10-31T15:46:42;15.40;99.90
11242;DHT22;5678;52.370;9.006;2022-10-31T15:49:19;15.30;99.90
11242;DHT22;5678;52.370;9.006;2022-10-31T15:51:51;15.30;99.90
11242;DHT22;5678;52.370;9.006;2022-10-31T15:54:20;15.20;99.90
11242;DHT22;5678;52.370;9.006;2022-10-31T15:56:50;15.20;99.90
11242;DHT22;5678;52.370;9.006;2022-10-31T15:59:21;15.20;99.90
11242;DHT22;5678;52.370;9.006;2022-10-31T16:01:59;15.10;99.90
11242;DHT22;5678;52.370;9.006;2022-10-31T16:04:29;15.30;99.90
11242;DHT22;5678;52.370;9.006;2022-10-31T16:07:02;15.10;99.90
11242;DHT22;5678;52.370;9.006;2022-10-31T16:09:30;15.20;99.90
11242;DHT22;5678;52.370;9.006;2022-10-31T16:12:00;15.10;99.90
11242;DHT22;5678;52.370;9.006;2022-10-31T16:14:30;15.10;99.90
11242;DHT22;5678;52.370;9.006;2022-10-31T16:16:59;15.10;99.90
11242;DHT22;5678;52.370;9.006;2022-10-31T16:19:30;15.10;99.90
11242;DHT22;5678;52.370;9.006;2022-10-31T16:22:06;15.00;99.90
11242;DHT22;5678;52.370;9.006;2022-10-31T16:24:44;15.10;99.90
11242;DHT22;5678;52.370;9.006;2022-10-31T16:27:20;15.10;99.90
11242;DHT22;5678;52.370;9.006;2022-10-31T16:29:50;15.10;99.90
11242;DHT22;5678;52.370;9.006;2022-10-31T16:32:33;15.10;99.90
11242;DHT22;5678;52.370;9.006;2022-10-31T16:35:17;15.30;99.90